createdAt,value
2018-05-29T00:00:12.328Z,69.00
2018-05-29T00:00:46.120Z,68.30
2018-05-29T00:01:19.920Z,68.30
2018-05-29T00:01:52.954Z,68.20
2018-05-29T00:02:25.985Z,68.00
2018-05-29T00:02:59.013Z,68.00
2018-05-29T00:03:32.095Z,68.20
2018-05-29T00:04:05.135Z,68.50
2018-05-29T00:04:38.164Z,68.70
2018-05-29T00:05:11.184Z,68.40
2018-05-29T00:05:44.990Z,68.60
2018-05-29T00:06:18.773Z,68.50
2018-05-29T00:06:52.564Z,68.50
2018-05-29T00:07:26.400Z,68.50
2018-05-29T00:07:59.574Z,68.40
2018-05-29T00:08:32.594Z,68.80
2018-05-29T00:09:05.712Z,68.80
2018-05-29T00:09:38.756Z,68.50
2018-05-29T00:10:11.799Z,68.30
2018-05-29T00:10:44.841Z,68.50
2018-05-29T00:11:18.153Z,68.40
2018-05-29T00:11:51.186Z,68.60
2018-05-29T00:12:24.212Z,68.30
2018-05-29T00:12:57.252Z,68.60
2018-05-29T00:13:30.276Z,68.70
2018-05-29T00:14:04.085Z,68.80
2018-05-29T00:14:37.872Z,69.40
2018-05-29T00:15:11.665Z,68.90
2018-05-29T00:15:45.453Z,69.10
2018-05-29T00:16:19.256Z,69.90
2018-05-29T00:16:53.067Z,69.00
2018-05-29T00:17:26.100Z,69.00
2018-05-29T00:17:59.222Z,68.90
2018-05-29T00:18:32.252Z,68.90
2018-05-29T00:19:05.279Z,68.90
2018-05-29T00:19:38.306Z,69.00
2018-05-29T00:20:12.100Z,69.30
2018-05-29T00:20:45.909Z,69.10
2018-05-29T00:21:19.701Z,69.20
2018-05-29T00:21:53.527Z,69.20
2018-05-29T00:22:26.590Z,69.10
2018-05-29T00:22:59.612Z,69.30
2018-05-29T00:23:32.655Z,69.40
2018-05-29T00:24:05.693Z,69.40
2018-05-29T00:24:38.734Z,69.30
2018-05-29T00:25:11.780Z,69.30
2018-05-29T00:25:44.824Z,69.30
2018-05-29T00:26:17.844Z,69.50
2018-05-29T00:26:50.925Z,69.70
2018-05-29T00:27:23.933Z,69.70
2018-05-29T00:27:56.992Z,69.90
2018-05-29T00:28:30.036Z,69.90
2018-05-29T00:29:03.078Z,70.20
2018-05-29T00:29:36.089Z,70.20
2018-05-29T00:30:09.143Z,70.50
2018-05-29T00:30:42.152Z,70.60
2018-05-29T00:31:15.183Z,70.60
2018-05-29T00:31:48.212Z,70.80
2018-05-29T00:32:21.236Z,70.70
2018-05-29T00:32:54.289Z,70.80
2018-05-29T00:33:27.328Z,70.80
2018-05-29T00:34:00.348Z,71.00
2018-05-29T00:34:33.372Z,71.00
2018-05-29T00:35:06.400Z,70.90
2018-05-29T00:35:39.427Z,72.00
2018-05-29T00:36:12.468Z,71.10
2018-05-29T00:36:45.483Z,71.30
2018-05-29T00:37:18.513Z,71.30
2018-05-29T00:37:51.769Z,70.90
2018-05-29T00:38:24.796Z,71.00
2018-05-29T00:38:57.840Z,71.40
2018-05-29T00:39:30.864Z,71.40
2018-05-29T00:40:04.659Z,71.40
2018-05-29T00:40:38.452Z,71.20
2018-05-29T00:41:12.255Z,71.10
2018-05-29T00:41:46.059Z,71.40
2018-05-29T00:42:19.080Z,71.40
2018-05-29T00:42:52.141Z,71.20
2018-05-29T00:43:25.167Z,71.20
2018-05-29T00:43:58.956Z,71.30
2018-05-29T00:44:32.767Z,71.40
2018-05-29T00:45:05.804Z,71.20
2018-05-29T00:45:38.850Z,71.20
2018-05-29T00:46:11.888Z,71.20
2018-05-29T00:46:45.696Z,71.50
2018-05-29T00:47:18.726Z,71.40
2018-05-29T00:47:51.782Z,71.40
2018-05-29T00:48:24.821Z,71.40
2018-05-29T00:48:57.848Z,71.50
2018-05-29T00:49:30.868Z,71.50
2018-05-29T00:50:03.905Z,71.50
2018-05-29T00:50:37.708Z,71.70
2018-05-29T00:51:11.488Z,71.70
2018-05-29T00:51:45.280Z,71.60
2018-05-29T00:52:19.088Z,71.80
2018-05-29T00:52:52.917Z,71.50
2018-05-29T00:53:25.943Z,71.50
2018-05-29T00:53:58.996Z,72.00
2018-05-29T00:54:32.021Z,71.70
2018-05-29T00:55:17.025Z,71.80
2018-05-29T00:55:50.077Z,71.40
2018-05-29T00:56:23.100Z,71.40
2018-05-29T00:56:56.127Z,71.50
2018-05-29T00:57:29.154Z,71.70
2018-05-29T00:58:02.966Z,71.50
2018-05-29T00:58:35.989Z,71.40
2018-05-29T00:59:09.020Z,72.00
2018-05-29T00:59:42.105Z,71.50
2018-05-29T01:00:15.129Z,71.60
2018-05-29T01:00:48.161Z,71.70
2018-05-29T01:01:21.197Z,71.70
2018-05-29T01:01:54.991Z,71.80
2018-05-29T01:02:28.789Z,71.80
2018-05-29T01:03:01.840Z,71.70
2018-05-29T01:03:34.888Z,71.90
2018-05-29T01:04:07.951Z,71.90
2018-05-29T01:04:40.949Z,72.00
2018-05-29T01:05:13.981Z,72.50
2018-05-29T01:05:47.004Z,72.30
2018-05-29T01:06:20.042Z,72.50
2018-05-29T01:06:53.068Z,72.30
2018-05-29T01:07:26.889Z,72.50
2018-05-29T01:07:59.919Z,72.40
2018-05-29T01:08:32.974Z,72.20
2018-05-29T01:09:06.008Z,73.60
2018-05-29T01:09:39.029Z,72.50
2018-05-29T01:10:12.068Z,72.10
2018-05-29T01:10:45.092Z,72.20
2018-05-29T01:11:18.218Z,71.80
2018-05-29T01:11:51.248Z,71.90
2018-05-29T01:12:24.581Z,71.60
2018-05-29T01:12:57.612Z,71.40
2018-05-29T01:13:31.418Z,71.70
2018-05-29T01:14:05.218Z,71.30
2018-05-29T01:14:38.292Z,71.30
2018-05-29T01:15:11.316Z,71.30
2018-05-29T01:15:44.345Z,71.30
2018-05-29T01:16:17.380Z,71.30
2018-05-29T01:16:50.403Z,71.30
2018-05-29T01:17:23.437Z,71.70
2018-05-29T01:17:56.556Z,71.40
2018-05-29T01:18:29.608Z,72.30
2018-05-29T01:19:03.409Z,71.30
2018-05-29T01:19:36.451Z,71.30
2018-05-29T01:20:09.482Z,71.30
2018-05-29T01:20:42.680Z,71.30
2018-05-29T01:21:15.744Z,71.30
2018-05-29T01:21:49.005Z,71.40
2018-05-29T01:22:22.032Z,71.10
2018-05-29T01:22:55.057Z,71.40
2018-05-29T01:23:28.106Z,71.40
2018-05-29T01:24:01.907Z,71.60
2018-05-29T01:24:34.944Z,71.60
2018-05-29T01:25:07.988Z,71.80
2018-05-29T01:25:41.232Z,72.00
2018-05-29T01:26:15.025Z,72.00
2018-05-29T01:26:48.062Z,72.00
2018-05-29T01:27:21.085Z,72.20
2018-05-29T01:27:54.107Z,72.20
2018-05-29T01:28:27.149Z,71.80
2018-05-29T01:29:00.172Z,72.10
2018-05-29T01:29:33.202Z,72.40
2018-05-29T01:30:06.239Z,72.20
2018-05-29T01:30:40.051Z,72.50
2018-05-29T01:31:13.072Z,72.40
2018-05-29T01:31:46.112Z,72.50
2018-05-29T01:32:19.140Z,72.50
2018-05-29T01:32:52.951Z,73.80
2018-05-29T01:33:25.984Z,72.60
2018-05-29T01:33:59.034Z,72.80
2018-05-29T01:34:32.084Z,72.80
2018-05-29T01:35:05.884Z,73.40
2018-05-29T01:35:38.909Z,73.40
2018-05-29T01:36:11.941Z,73.40
2018-05-29T01:36:45.028Z,73.50
2018-05-29T01:37:18.061Z,73.50
2018-05-29T01:37:51.867Z,73.70
2018-05-29T01:38:24.915Z,73.70
2018-05-29T01:38:59.058Z,74.10
2018-05-29T01:39:32.097Z,74.10
2018-05-29T01:40:05.141Z,74.10
2018-05-29T01:40:38.165Z,74.20
2018-05-29T01:41:11.196Z,74.40
2018-05-29T01:41:44.268Z,74.40
2018-05-29T01:42:17.297Z,74.40
2018-05-29T01:42:50.392Z,74.50
2018-05-29T01:43:23.556Z,74.60
2018-05-29T01:43:56.765Z,74.70
2018-05-29T01:44:29.803Z,74.80
2018-05-29T01:45:02.830Z,74.90
2018-05-29T01:45:35.863Z,75.00
2018-05-29T01:46:08.888Z,74.90
2018-05-29T01:46:41.920Z,75.10
2018-05-29T01:47:15.000Z,75.00
2018-05-29T01:47:48.021Z,75.30
2018-05-29T01:48:21.169Z,75.30
2018-05-29T01:48:54.197Z,75.20
2018-05-29T01:49:27.289Z,76.30
2018-05-29T01:50:00.304Z,75.60
2018-05-29T01:50:33.337Z,75.60
2018-05-29T01:51:06.352Z,75.70
2018-05-29T01:51:39.387Z,75.70
2018-05-29T01:52:12.417Z,75.80
2018-05-29T01:52:45.449Z,76.70
2018-05-29T01:53:18.472Z,75.80
2018-05-29T01:53:52.280Z,76.00
2018-05-29T01:54:25.317Z,76.00
2018-05-29T01:54:58.344Z,76.10
2018-05-29T01:55:31.404Z,76.20
2018-05-29T01:56:05.197Z,76.10
2018-05-29T01:56:38.220Z,76.10
2018-05-29T01:57:11.378Z,76.30
2018-05-29T01:57:44.400Z,76.40
2018-05-29T01:58:17.429Z,76.20
2018-05-29T01:58:50.477Z,76.30
2018-05-29T01:59:23.503Z,76.30
2018-05-29T01:59:56.528Z,76.30
2018-05-29T02:00:29.564Z,76.40
2018-05-29T02:01:02.602Z,76.30
2018-05-29T02:01:35.627Z,76.30
2018-05-29T02:02:09.422Z,76.60
2018-05-29T02:02:42.457Z,76.50
2018-05-29T02:03:15.485Z,76.60
2018-05-29T02:03:49.309Z,76.80
2018-05-29T02:04:23.162Z,76.70
2018-05-29T02:04:56.280Z,76.70
2018-05-29T02:05:29.465Z,76.70
2018-05-29T02:06:02.504Z,76.90
2018-05-29T02:06:35.537Z,76.80
2018-05-29T02:07:08.558Z,77.00
2018-05-29T02:07:41.593Z,76.80
2018-05-29T02:08:14.624Z,77.10
2018-05-29T02:08:47.648Z,77.10
2018-05-29T02:09:20.688Z,77.10
2018-05-29T02:09:53.732Z,77.30
2018-05-29T02:10:26.746Z,77.40
2018-05-29T02:10:59.775Z,77.40
2018-05-29T02:11:32.805Z,77.50
2018-05-29T02:12:05.828Z,77.40
2018-05-29T02:12:38.849Z,77.50
2018-05-29T02:13:11.898Z,77.50
2018-05-29T02:13:45.085Z,77.40
2018-05-29T02:14:18.116Z,77.50
2018-05-29T02:14:51.160Z,77.40
2018-05-29T02:15:24.189Z,77.40
2018-05-29T02:15:57.216Z,77.60
2018-05-29T02:16:30.249Z,77.50
2018-05-29T02:17:03.289Z,77.60
2018-05-29T02:17:37.080Z,77.80
2018-05-29T02:18:10.109Z,77.80
2018-05-29T02:18:43.144Z,77.80
2018-05-29T02:19:16.174Z,77.90
2018-05-29T02:19:49.233Z,77.90
2018-05-29T02:20:22.390Z,78.00
2018-05-29T02:20:55.413Z,78.00
2018-05-29T02:21:28.541Z,78.00
2018-05-29T02:22:01.565Z,78.30
2018-05-29T02:22:34.620Z,78.30
2018-05-29T02:23:07.648Z,78.30
2018-05-29T02:23:40.965Z,79.00
2018-05-29T02:24:14.009Z,78.40
2018-05-29T02:24:47.044Z,78.60
2018-05-29T02:25:20.152Z,78.60
2018-05-29T02:25:53.188Z,78.50
2018-05-29T02:26:26.220Z,78.50
2018-05-29T02:26:59.252Z,78.70
2018-05-29T02:27:33.056Z,78.70
2018-05-29T02:28:06.844Z,78.70
2018-05-29T02:28:40.637Z,79.80
2018-05-29T02:29:14.449Z,78.80
2018-05-29T02:29:47.465Z,78.80
2018-05-29T02:30:20.615Z,78.90
2018-05-29T02:30:53.648Z,79.10
2018-05-29T02:31:27.432Z,79.10
2018-05-29T02:32:00.456Z,79.10
2018-05-29T02:32:33.484Z,79.00
2018-05-29T02:33:07.269Z,79.20
2018-05-29T02:33:41.064Z,79.90
2018-05-29T02:34:14.875Z,80.20
2018-05-29T02:34:48.661Z,79.50
2018-05-29T02:35:22.452Z,79.50
2018-05-29T02:35:56.287Z,79.50
2018-05-29T02:36:29.450Z,79.40
2018-05-29T02:37:02.495Z,79.50
2018-05-29T02:37:36.295Z,79.70
2018-05-29T02:38:09.341Z,79.70
2018-05-29T02:38:42.380Z,79.70
2018-05-29T02:39:15.567Z,79.70
2018-05-29T02:39:48.581Z,79.80
2018-05-29T02:40:21.609Z,79.70
2018-05-29T02:40:54.668Z,80.00
2018-05-29T02:41:27.715Z,79.80
2018-05-29T02:42:00.747Z,80.20
2018-05-29T02:42:33.769Z,80.10
2018-05-29T02:43:06.983Z,80.10
2018-05-29T02:43:40.012Z,80.00
2018-05-29T02:44:13.040Z,79.90
2018-05-29T02:44:46.069Z,79.90
2018-05-29T02:45:19.852Z,80.10
2018-05-29T02:45:53.645Z,80.10
2018-05-29T02:46:27.456Z,80.10
2018-05-29T02:47:01.252Z,80.00
2018-05-29T02:47:34.463Z,79.90
2018-05-29T02:48:07.501Z,79.90
2018-05-29T02:48:40.537Z,80.20
2018-05-29T02:49:13.580Z,80.40
2018-05-29T02:49:46.622Z,80.30
2018-05-29T02:50:20.408Z,80.30
2018-05-29T02:50:53.437Z,80.30
2018-05-29T02:51:27.229Z,80.60
2018-05-29T02:52:00.268Z,80.60
2018-05-29T02:52:33.293Z,80.60
2018-05-29T02:53:06.326Z,80.50
2018-05-29T02:53:39.399Z,80.60
2018-05-29T02:54:12.569Z,80.70
2018-05-29T02:54:45.616Z,80.80
2018-05-29T02:55:19.413Z,80.90
2018-05-29T02:55:52.436Z,80.90
2018-05-29T02:56:25.504Z,80.90
2018-05-29T02:56:58.531Z,81.00
2018-05-29T02:57:31.555Z,80.80
2018-05-29T02:58:04.567Z,81.00
2018-05-29T02:58:37.590Z,81.00
2018-05-29T02:59:10.616Z,81.80
2018-05-29T02:59:43.670Z,81.10
2018-05-29T03:00:16.698Z,81.40
2018-05-29T03:00:49.801Z,81.30
2018-05-29T03:01:22.840Z,81.40
2018-05-29T03:01:56.629Z,81.60
2018-05-29T03:02:30.437Z,81.50
2018-05-29T03:03:03.476Z,81.50
2018-05-29T03:03:36.612Z,81.50
2018-05-29T03:04:09.636Z,81.40
2018-05-29T03:04:42.762Z,81.40
2018-05-29T03:05:15.795Z,81.60
2018-05-29T03:05:48.821Z,81.70
2018-05-29T03:06:21.857Z,81.60
2018-05-29T03:06:55.653Z,81.70
2018-05-29T03:07:28.685Z,81.60
2018-05-29T03:08:01.789Z,81.90
2018-05-29T03:08:34.755Z,81.90
2018-05-29T03:09:08.554Z,82.90
2018-05-29T03:09:42.398Z,82.20
2018-05-29T03:10:15.412Z,82.20
2018-05-29T03:10:48.441Z,82.20
2018-05-29T03:11:21.465Z,82.40
2018-05-29T03:11:55.252Z,82.50
2018-05-29T03:12:29.042Z,82.40
2018-05-29T03:13:02.068Z,82.20
2018-05-29T03:13:35.091Z,82.90
2018-05-29T03:14:08.892Z,82.30
2018-05-29T03:14:41.932Z,82.30
2018-05-29T03:15:15.733Z,82.50
2018-05-29T03:15:48.777Z,82.50
2018-05-29T03:16:21.812Z,82.60
2018-05-29T03:16:54.928Z,82.40
2018-05-29T03:17:27.948Z,82.60
2018-05-29T03:18:00.996Z,82.60
2018-05-29T03:18:34.023Z,82.60
2018-05-29T03:19:07.060Z,82.80
2018-05-29T03:19:40.109Z,82.70
2018-05-29T03:20:13.140Z,82.80
2018-05-29T03:20:46.943Z,83.10
2018-05-29T03:21:19.979Z,83.10
2018-05-29T03:21:53.002Z,83.00
2018-05-29T03:22:26.036Z,83.20
2018-05-29T03:22:59.064Z,83.30
2018-05-29T03:23:32.093Z,83.30
2018-05-29T03:24:05.113Z,83.40
2018-05-29T03:24:38.145Z,83.20
2018-05-29T03:25:11.957Z,83.50
2018-05-29T03:25:44.993Z,83.50
2018-05-29T03:26:18.026Z,83.40
2018-05-29T03:26:51.064Z,83.50
2018-05-29T03:27:24.848Z,83.70
2018-05-29T03:27:58.648Z,83.80
2018-05-29T03:28:32.441Z,83.90
2018-05-29T03:29:06.317Z,83.90
2018-05-29T03:29:39.356Z,83.90
2018-05-29T03:30:12.433Z,84.00
2018-05-29T03:30:45.484Z,83.70
2018-05-29T03:31:18.536Z,84.10
2018-05-29T03:31:52.321Z,84.00
2018-05-29T03:32:26.108Z,84.50
2018-05-29T03:32:59.894Z,84.50
2018-05-29T03:33:32.941Z,84.20
2018-05-29T03:34:05.981Z,84.70
2018-05-29T03:34:39.001Z,84.20
2018-05-29T03:35:12.025Z,85.00
2018-05-29T03:35:45.824Z,84.30
2018-05-29T03:36:19.005Z,84.30
2018-05-29T03:36:52.185Z,84.00
2018-05-29T03:37:25.211Z,84.20
2018-05-29T03:37:58.246Z,84.20
2018-05-29T03:38:31.512Z,84.40
2018-05-29T03:39:04.575Z,84.30
2018-05-29T03:39:38.350Z,84.40
2018-05-29T03:40:11.405Z,84.40
2018-05-29T03:40:44.473Z,84.40
2018-05-29T03:41:17.517Z,84.30
2018-05-29T03:41:50.540Z,84.20
2018-05-29T03:42:24.342Z,84.70
2018-05-29T03:42:58.125Z,84.30
2018-05-29T03:43:31.155Z,84.30
2018-05-29T03:44:04.196Z,84.20
2018-05-29T03:44:37.259Z,84.20
2018-05-29T03:45:10.290Z,84.30
2018-05-29T03:45:43.343Z,84.10
2018-05-29T03:46:16.364Z,84.00
2018-05-29T03:46:49.400Z,83.90
2018-05-29T03:47:22.432Z,83.80
2018-05-29T03:47:55.465Z,83.80
2018-05-29T03:48:29.264Z,83.70
2018-05-29T03:49:02.290Z,83.70
2018-05-29T03:49:36.093Z,83.50
2018-05-29T03:50:09.133Z,83.50
2018-05-29T03:50:42.166Z,83.90
2018-05-29T03:51:15.203Z,83.70
2018-05-29T03:51:49.024Z,83.50
2018-05-29T03:52:22.057Z,83.50
2018-05-29T03:52:55.173Z,83.50
2018-05-29T03:53:28.213Z,83.30
2018-05-29T03:54:01.341Z,84.10
2018-05-29T03:54:34.384Z,83.30
2018-05-29T03:55:07.416Z,83.90
2018-05-29T03:55:40.461Z,83.30
2018-05-29T03:56:13.492Z,82.90
2018-05-29T03:56:46.535Z,82.90
2018-05-29T03:57:19.581Z,82.70
2018-05-29T03:57:52.602Z,82.60
2018-05-29T03:58:25.637Z,82.50
2018-05-29T03:58:58.684Z,82.80
2018-05-29T03:59:31.722Z,82.80
2018-05-29T04:00:04.752Z,83.80
2018-05-29T04:00:38.581Z,82.30
2018-05-29T04:01:11.629Z,82.30
2018-05-29T04:01:44.661Z,81.90
2018-05-29T04:02:17.704Z,81.70
2018-05-29T04:02:50.774Z,81.80
2018-05-29T04:03:24.021Z,81.60
2018-05-29T04:03:57.390Z,81.70
2018-05-29T04:04:30.425Z,82.40
2018-05-29T04:05:04.238Z,81.50
2018-05-29T04:05:37.296Z,81.30
2018-05-29T04:06:11.095Z,81.50
2018-05-29T04:06:44.135Z,81.40
2018-05-29T04:07:17.177Z,81.60
2018-05-29T04:07:50.208Z,81.60
2018-05-29T04:08:24.029Z,81.40
2018-05-29T04:08:57.063Z,81.70
2018-05-29T04:09:30.111Z,81.50
2018-05-29T04:10:03.171Z,83.40
2018-05-29T04:10:36.209Z,81.90
2018-05-29T04:11:10.033Z,82.50
2018-05-29T04:11:43.084Z,82.40
2018-05-29T04:12:16.124Z,84.10
2018-05-29T04:12:49.167Z,82.60
2018-05-29T04:13:22.205Z,83.90
2018-05-29T04:13:55.430Z,84.50
2018-05-29T04:14:28.480Z,84.40
2018-05-29T04:15:01.532Z,82.60
2018-05-29T04:15:34.591Z,81.80
2018-05-29T04:16:07.912Z,81.70
2018-05-29T04:16:40.961Z,82.50
2018-05-29T04:17:14.756Z,83.60
2018-05-29T04:17:48.579Z,81.30
2018-05-29T04:18:21.622Z,81.30
2018-05-29T04:18:54.664Z,81.20
2018-05-29T04:19:27.719Z,80.60
2018-05-29T04:20:00.757Z,83.00
2018-05-29T04:20:33.801Z,82.40
2018-05-29T04:21:06.836Z,82.90
2018-05-29T04:21:39.879Z,82.60
2018-05-29T04:22:12.995Z,82.40
2018-05-29T04:22:46.065Z,80.60
2018-05-29T04:23:19.106Z,82.50
2018-05-29T04:23:52.156Z,82.60
2018-05-29T04:24:25.237Z,84.10
2018-05-29T04:24:58.250Z,83.10
2018-05-29T04:25:32.083Z,82.90
2018-05-29T04:26:05.152Z,82.70
2018-05-29T04:26:38.204Z,81.10
2018-05-29T04:27:11.265Z,81.70
2018-05-29T04:27:44.301Z,83.20
2018-05-29T04:28:17.361Z,82.80
2018-05-29T04:28:50.399Z,82.40
2018-05-29T04:29:23.428Z,82.00
2018-05-29T04:29:57.242Z,82.20
2018-05-29T04:30:30.280Z,82.10
2018-05-29T04:31:03.342Z,81.00
2018-05-29T04:31:36.372Z,84.00
2018-05-29T04:32:09.585Z,81.50
2018-05-29T04:32:42.607Z,82.10
2018-05-29T04:33:15.649Z,81.70
2018-05-29T04:33:48.690Z,84.20
2018-05-29T04:34:21.729Z,83.10
2018-05-29T04:34:54.755Z,81.70
2018-05-29T04:35:28.037Z,80.00
2018-05-29T04:36:01.108Z,79.50
2018-05-29T04:36:34.136Z,80.20
2018-05-29T04:37:07.941Z,79.50
2018-05-29T04:37:40.991Z,79.50
2018-05-29T04:38:14.018Z,79.30
2018-05-29T04:38:47.082Z,79.30
2018-05-29T04:39:20.118Z,83.40
2018-05-29T04:39:53.924Z,85.30
2018-05-29T04:40:26.971Z,85.30
2018-05-29T04:41:00.012Z,81.60
2018-05-29T04:41:33.053Z,82.90
2018-05-29T04:42:06.097Z,84.30
2018-05-29T04:42:39.141Z,80.80
2018-05-29T04:43:12.169Z,84.30
2018-05-29T04:43:46.018Z,85.00
2018-05-29T04:44:19.017Z,85.10
2018-05-29T04:44:52.056Z,83.00
2018-05-29T04:45:25.084Z,84.00
2018-05-29T04:45:58.911Z,84.20
2018-05-29T04:46:31.941Z,84.10
2018-05-29T04:47:05.776Z,84.70
2018-05-29T04:47:39.560Z,83.10
2018-05-29T04:48:12.584Z,83.00
2018-05-29T04:48:45.632Z,81.80
2018-05-29T04:49:18.668Z,84.60
2018-05-29T04:49:51.708Z,81.80
2018-05-29T04:50:24.732Z,81.60
2018-05-29T04:50:57.793Z,81.10
2018-05-29T04:51:31.624Z,85.50
2018-05-29T04:52:04.661Z,85.50
2018-05-29T04:52:37.702Z,83.20
2018-05-29T04:53:10.736Z,82.10
2018-05-29T04:53:43.761Z,83.70
2018-05-29T04:54:17.577Z,81.30
2018-05-29T04:54:50.631Z,80.60
2018-05-29T04:55:23.668Z,83.40
2018-05-29T04:55:56.708Z,80.50
2018-05-29T04:56:29.778Z,81.10
2018-05-29T04:57:03.581Z,79.90
2018-05-29T04:57:36.620Z,79.90
2018-05-29T04:58:09.674Z,84.20
2018-05-29T04:58:42.688Z,83.10
2018-05-29T04:59:15.725Z,80.40
2018-05-29T04:59:48.764Z,81.90
2018-05-29T05:00:21.796Z,83.10
2018-05-29T05:00:55.598Z,85.10
2018-05-29T05:01:29.416Z,85.20
2018-05-29T05:02:02.449Z,85.10
2018-05-29T05:02:35.637Z,84.60
2018-05-29T05:03:08.616Z,84.50
2018-05-29T05:03:41.649Z,82.80
2018-05-29T05:04:14.682Z,81.60
2018-05-29T05:04:48.502Z,81.50
2018-05-29T05:05:21.545Z,81.40
2018-05-29T05:05:54.594Z,81.20
2018-05-29T05:06:27.644Z,82.20
2018-05-29T05:07:00.719Z,84.00
2018-05-29T05:07:33.726Z,84.90
2018-05-29T05:08:07.533Z,82.30
2018-05-29T05:08:40.572Z,82.20
2018-05-29T05:09:13.616Z,84.00
2018-05-29T05:09:46.657Z,84.60
2018-05-29T05:10:19.695Z,84.40
2018-05-29T05:10:52.732Z,84.20
2018-05-29T05:11:25.791Z,84.10
2018-05-29T05:11:58.841Z,83.60
2018-05-29T05:12:31.967Z,83.40
2018-05-29T05:13:05.010Z,83.70
2018-05-29T05:13:38.036Z,84.00
2018-05-29T05:14:11.077Z,83.80
2018-05-29T05:14:44.120Z,83.40
2018-05-29T05:15:17.241Z,83.60
2018-05-29T05:15:50.272Z,83.10
2018-05-29T05:16:24.091Z,82.00
2018-05-29T05:16:57.124Z,82.10
2018-05-29T05:17:30.148Z,83.80
2018-05-29T05:18:03.203Z,83.60
2018-05-29T05:18:36.309Z,81.10
2018-05-29T05:19:09.343Z,80.40
2018-05-29T05:19:42.369Z,83.10
2018-05-29T05:20:15.457Z,84.20
2018-05-29T05:20:48.464Z,83.90
2018-05-29T05:21:21.536Z,83.60
2018-05-29T05:21:55.351Z,81.70
2018-05-29T05:22:28.391Z,81.70
2018-05-29T05:23:01.444Z,80.20
2018-05-29T05:23:34.527Z,83.00
2018-05-29T05:24:07.575Z,82.60
2018-05-29T05:24:40.649Z,81.90
2018-05-29T05:25:13.692Z,82.30
2018-05-29T05:25:46.730Z,82.90
2018-05-29T05:26:19.785Z,83.10
2018-05-29T05:26:52.817Z,82.50
2018-05-29T05:27:25.848Z,81.20
2018-05-29T05:27:58.896Z,82.30
2018-05-29T05:28:31.936Z,83.00
2018-05-29T05:29:04.976Z,81.30
2018-05-29T05:29:38.017Z,80.80
2018-05-29T05:30:11.044Z,82.40
2018-05-29T05:30:44.087Z,81.60
2018-05-29T05:31:17.130Z,81.60
2018-05-29T05:31:50.188Z,81.60
2018-05-29T05:32:23.224Z,81.30
2018-05-29T05:32:56.269Z,81.00
2018-05-29T05:33:29.318Z,80.30
2018-05-29T05:34:02.352Z,81.70
2018-05-29T05:34:35.400Z,81.30
2018-05-29T05:35:08.440Z,80.60
2018-05-29T05:35:41.493Z,81.60
2018-05-29T05:36:15.288Z,80.70
2018-05-29T05:36:49.145Z,80.70
2018-05-29T05:37:22.165Z,80.70
2018-05-29T05:37:55.204Z,79.40
2018-05-29T05:38:28.257Z,79.10
2018-05-29T05:39:01.294Z,79.80
2018-05-29T05:39:34.325Z,81.70
2018-05-29T05:40:07.368Z,80.90
2018-05-29T05:40:40.417Z,80.80
2018-05-29T05:41:13.448Z,80.70
2018-05-29T05:41:46.501Z,80.50
2018-05-29T05:42:19.730Z,80.10
2018-05-29T05:42:52.764Z,80.20
2018-05-29T05:43:25.793Z,78.80
2018-05-29T05:43:59.605Z,80.10
2018-05-29T05:44:32.640Z,80.00
2018-05-29T05:45:05.689Z,80.60
2018-05-29T05:45:38.724Z,80.90
2018-05-29T05:46:11.759Z,80.80
2018-05-29T05:46:44.825Z,80.70
2018-05-29T05:47:17.869Z,80.70
2018-05-29T05:47:50.898Z,80.70
2018-05-29T05:48:24.733Z,80.50
2018-05-29T05:48:57.757Z,80.40
2018-05-29T05:49:31.582Z,80.10
2018-05-29T05:50:04.607Z,79.70
2018-05-29T05:50:37.648Z,80.70
2018-05-29T05:51:10.729Z,81.30
2018-05-29T05:51:43.776Z,79.90
2018-05-29T05:52:16.816Z,80.50
2018-05-29T05:52:49.920Z,79.70
2018-05-29T05:53:22.912Z,80.20
2018-05-29T05:53:55.941Z,81.20
2018-05-29T05:54:28.964Z,80.80
2018-05-29T05:55:02.027Z,81.00
2018-05-29T05:55:35.059Z,80.50
2018-05-29T05:56:08.105Z,81.20
2018-05-29T05:56:41.157Z,81.30
2018-05-29T05:57:14.220Z,81.00
2018-05-29T05:57:47.251Z,81.10
2018-05-29T05:58:20.288Z,81.40
2018-05-29T05:58:53.324Z,81.10
2018-05-29T05:59:27.129Z,80.40
2018-05-29T06:00:00.952Z,80.00
2018-05-29T06:00:34.013Z,79.90
2018-05-29T06:01:07.053Z,80.70
2018-05-29T06:01:40.101Z,80.20
2018-05-29T06:02:13.137Z,80.00
2018-05-29T06:02:46.183Z,80.00
2018-05-29T06:03:19.213Z,80.30
2018-05-29T06:03:52.240Z,80.50
2018-05-29T06:04:26.045Z,79.50
2018-05-29T06:04:59.072Z,79.40
2018-05-29T06:05:32.112Z,79.40
2018-05-29T06:06:05.153Z,79.60
2018-05-29T06:06:38.192Z,79.20
2018-05-29T06:07:12.025Z,78.30
2018-05-29T06:07:45.846Z,78.60
2018-05-29T06:08:18.877Z,78.60
2018-05-29T06:08:51.909Z,78.40
2018-05-29T06:09:24.940Z,78.40
2018-05-29T06:09:58.780Z,78.20
2018-05-29T06:10:31.817Z,78.20
2018-05-29T06:11:04.847Z,78.50
2018-05-29T06:11:37.932Z,78.70
2018-05-29T06:12:11.004Z,78.40
2018-05-29T06:12:44.056Z,78.70
2018-05-29T06:13:17.153Z,78.20
2018-05-29T06:13:50.254Z,78.60
2018-05-29T06:14:24.068Z,78.20
2018-05-29T06:14:57.088Z,78.10
2018-05-29T06:15:30.120Z,78.30
2018-05-29T06:16:03.195Z,78.60
2018-05-29T06:16:36.983Z,78.70
2018-05-29T06:17:10.020Z,78.70
2018-05-29T06:17:43.061Z,78.30
2018-05-29T06:18:16.096Z,78.20
2018-05-29T06:18:49.929Z,78.90
2018-05-29T06:19:22.980Z,78.90
2018-05-29T06:19:56.017Z,78.90
2018-05-29T06:20:29.041Z,78.80
2018-05-29T06:21:02.124Z,79.20
2018-05-29T06:21:35.169Z,78.70
2018-05-29T06:22:08.216Z,79.40
2018-05-29T06:22:41.253Z,78.60
2018-05-29T06:23:14.287Z,79.80
2018-05-29T06:23:47.332Z,78.90
2018-05-29T06:24:21.161Z,78.70
2018-05-29T06:24:54.181Z,78.70
2018-05-29T06:25:27.217Z,78.80
2018-05-29T06:26:00.252Z,78.70
2018-05-29T06:26:33.300Z,78.50
2018-05-29T06:27:06.365Z,78.40
2018-05-29T06:27:39.396Z,78.60
2018-05-29T06:28:13.212Z,78.30
2018-05-29T06:28:46.251Z,78.10
2018-05-29T06:29:19.282Z,78.50
2018-05-29T06:29:52.335Z,78.30
2018-05-29T06:30:25.380Z,78.80
2018-05-29T06:30:58.414Z,79.20
2018-05-29T06:31:31.449Z,78.40
2018-05-29T06:32:04.494Z,78.40
2018-05-29T06:32:37.536Z,78.60
2018-05-29T06:33:10.581Z,78.20
2018-05-29T06:33:43.608Z,78.10
2018-05-29T06:34:16.757Z,77.90
2018-05-29T06:34:49.785Z,77.90
2018-05-29T06:35:22.829Z,78.30
2018-05-29T06:35:55.879Z,78.00
2018-05-29T06:36:28.908Z,78.00
2018-05-29T06:37:01.970Z,77.50
2018-05-29T06:37:35.019Z,78.30
2018-05-29T06:38:08.091Z,77.70
2018-05-29T06:38:41.112Z,77.10
2018-05-29T06:39:14.918Z,77.70
2018-05-29T06:39:47.992Z,77.80
2018-05-29T06:40:21.031Z,78.30
2018-05-29T06:40:54.070Z,78.60
2018-05-29T06:41:27.113Z,78.20
2018-05-29T06:42:00.148Z,78.10
2018-05-29T06:42:33.208Z,77.90
2018-05-29T06:43:06.363Z,77.70
2018-05-29T06:43:39.416Z,78.40
2018-05-29T06:44:12.530Z,78.20
2018-05-29T06:44:45.560Z,77.50
2018-05-29T06:45:18.605Z,77.60
2018-05-29T06:45:51.641Z,77.10
2018-05-29T06:46:24.830Z,76.40
2018-05-29T06:46:57.864Z,76.80
2018-05-29T06:47:31.689Z,77.40
2018-05-29T06:48:04.722Z,77.30
2018-05-29T06:48:38.519Z,76.80
2018-05-29T06:49:12.320Z,76.80
2018-05-29T06:49:46.118Z,76.40
2018-05-29T06:50:19.169Z,76.40
2018-05-29T06:50:52.184Z,76.80
2018-05-29T06:51:25.232Z,76.10
2018-05-29T06:51:59.036Z,75.90
2018-05-29T06:52:32.152Z,75.90
2018-05-29T06:53:05.913Z,75.70
2018-05-29T06:53:38.949Z,75.70
2018-05-29T06:54:11.988Z,75.70
2018-05-29T06:54:45.024Z,75.90
2018-05-29T06:55:18.055Z,75.90
2018-05-29T06:55:51.092Z,75.20
2018-05-29T06:56:24.114Z,75.00
2018-05-29T06:56:57.153Z,74.60
2018-05-29T06:57:30.226Z,74.80
2018-05-29T06:58:03.288Z,74.30
2018-05-29T06:58:36.363Z,74.90
2018-05-29T06:59:09.392Z,75.20
2018-05-29T06:59:42.425Z,74.60
2018-05-29T07:00:15.505Z,74.30
2018-05-29T07:00:48.535Z,74.30
2018-05-29T07:01:22.325Z,74.60
2018-05-29T07:01:55.360Z,75.50
2018-05-29T07:02:28.390Z,75.10
2018-05-29T07:03:01.416Z,74.10
2018-05-29T07:03:34.555Z,73.50
2018-05-29T07:04:07.500Z,73.60
2018-05-29T07:04:41.305Z,73.50
2018-05-29T07:05:15.116Z,73.00
2018-05-29T07:05:48.149Z,73.00
2018-05-29T07:06:21.209Z,73.50
2018-05-29T07:06:54.264Z,73.80
2018-05-29T07:07:27.303Z,71.80